Galveston, TX

7:54 AM CST on January 19, 2017 (GMT -0600)
Galveston.com | | Change Station

Elev 36 ft 29.31 °N, 94.79 °W | Updated 9 seconds ago

Rain
Rain
61.5 °F
Feels Like 61.5 °F
N
0.0
Wind Variable Wind from SSE
Gusts 4.0 mph

Today
High -- | Low -- °F
--% Chance of Precip.
Yesterday
High -- | Low -- °F
Precip. -- in
Pressure 29.91 in
Visibility 7.0 miles
Clouds Mostly Cloudy 700 ft
Overcast 4800 ft
Dew Point 61 °F
Humidity 99%
Rainfall 0.05 in
Snow Depth Not available.
7:13 AM 5:46 PM
Waning Gibbous, 53% visible
SPECI KGLS 191320Z 36007KT 7SM -RA BKN007 OVC048 17/15 A2991 RMK AO2 RAB05 P0000 T01670150
Pressure 29.91 in
Visibility 7.0 miles
Clouds Mostly Cloudy 700 ft
Overcast 4800 ft
Dew Point 61 °F
Humidity 99%
Rainfall 0.05 in
Snow Depth Not available.
7:13 AM 5:46 PM
Waning Gibbous, 53% visible
SPECI KGLS 191320Z 36007KT 7SM -RA BKN007 OVC048 17/15 A2991 RMK AO2 RAB05 P0000 T01670150

Get Your Daily Forecast Email!

Thanks for signing up!

Be on the lookout for a verification email in your inbox.

You'll start receiving the daily forecast at 8 AM.

×

10-Day Weather Forecast

Almanac

Astronomy

Jan. 19, 2017 Rise Set
Actual Time
Civil Twilight
Nautical Twilight
Astronomical Twilight
Moon
Length of Visible Light
Length of Day
Tomorrow will be .
, % of the Moon is Illuminated

Today's Extremes

State Highs State Lows

Community

WunderPhotos

Upload Photos

1,962,540 photos uploaded!

WunderBlog® & News

Nearby

Air Quality

  Air Quality AQ Index Pollutant
Not available.

Snow Depth

Station Depth Elevation

Earthquake Activity

City Distance Mag. Time & Date
Minimum magnitude displayed is 2.5.

Coastal Water Temperatures

Place Temperature

Stations

Nearby Weather Stations

Station Location Temp. Windchill Dew Point Humidity Wind Precip. Elev Updated Type
                   

Watches & Warnings

There are currently no watches in effect.